Time;durP1;ratioP1;P1;durP2;ratioP2;P2;SDS_P1;SDS_P2;PMS_P1;PMS_P2;Temp;Humidity;BMP_temperature;BMP_pressure;BME280_temperature;BME280_humidity;BME280_pressure;Samples;Min_cycle;Max_cycle;Signal;HPM_P1;HPM_P2
2020/12/02 00:01:52;;;;;;;29.93;15.40;;;;;;;;;;3590721;39;20088;-90
2020/12/02 00:04:22;;;;;;;28.13;14.67;;;;;;;;;;3604997;39;20150;-88
2020/12/02 00:06:50;;;;;;;32.00;14.57;;;;;;;;;;3609832;39;20118;-90
2020/12/02 00:09:17;;;;;;;26.33;14.13;;;;;;;;;;3609522;39;20237;-88
2020/12/02 00:11:44;;;;;;;25.37;13.47;;;;;;;;;;3617893;39;20813;-89
2020/12/02 00:14:12;;;;;;;25.30;14.17;;;;;;;;;;3610716;32;20116;-88
2020/12/02 00:16:38;;;;;;;25.40;13.73;;;;;;;;;;3618550;39;20091;-88
2020/12/02 00:19:11;;;;;;;32.23;13.63;;;;;;;;;;3609708;39;20087;-89
2020/12/02 00:21:37;;;;;;;41.95;14.20;;;;;;;;;;3614097;32;20091;-90
2020/12/02 00:24:03;;;;;;;25.77;13.47;;;;;;;;;;3599712;39;20151;-88
2020/12/02 00:26:29;;;;;;;35.73;14.90;;;;;;;;;;3599806;39;20083;-90
2020/12/02 00:28:56;;;;;;;73.80;14.77;;;;;;;;;;3600955;39;20210;-90
2020/12/02 00:31:23;;;;;;;57.23;14.90;;;;;;;;;;3610421;39;20094;-89
2020/12/02 00:33:49;;;;;;;64.00;14.13;;;;;;;;;;3612707;32;20090;-89
2020/12/02 00:36:19;;;;;;;39.50;14.73;;;;;;;;;;3609856;39;20178;-90
2020/12/02 00:38:45;;;;;;;26.67;14.67;;;;;;;;;;3626222;32;20094;-90
2020/12/02 00:41:11;;;;;;;60.00;16.30;;;;;;;;;;3613189;32;20122;-90
2020/12/02 00:43:37;;;;;;;171.50;18.10;;;;;;;;;;3619498;39;20703;-90
2020/12/02 00:46:04;;;;;;;108.60;15.20;;;;;;;;;;3619718;39;20112;-88
2020/12/02 00:48:31;;;;;;;177.37;15.43;;;;;;;;;;3609355;39;20198;-90
2020/12/02 00:50:58;;;;;;;161.57;18.60;;;;;;;;;;3607505;32;20109;-89
2020/12/02 00:53:28;;;;;;;125.63;16.47;;;;;;;;;;3603682;32;20087;-90
2020/12/02 00:55:54;;;;;;;208.27;18.97;;;;;;;;;;3627316;39;20082;-89
2020/12/02 00:58:23;;;;;;;332.03;20.93;;;;;;;;;;3619257;32;20732;-90
2020/12/02 01:00:53;;;;;;;163.77;18.33;;;;;;;;;;3599419;32;20893;-90
2020/12/02 01:03:22;;;;;;;280.43;20.60;;;;;;;;;;3601738;32;20091;-89
2020/12/02 01:05:49;;;;;;;411.00;21.90;;;;;;;;;;3610811;32;20794;-90
2020/12/02 01:08:30;;;;;;;174.93;19.57;;;;;;;;;;3609128;39;20198;-89
2020/12/02 01:11:02;;;;;;;232.10;19.60;;;;;;;;;;3609188;39;20794;-88
2020/12/02 01:13:30;;;;;;;385.90;23.88;;;;;;;;;;3614815;32;20071;-88
2020/12/02 01:15:57;;;;;;;308.17;20.23;;;;;;;;;;3613745;32;20079;-89
2020/12/02 01:18:25;;;;;;;339.60;21.60;;;;;;;;;;3609261;39;20305;-90
2020/12/02 01:20:57;;;;;;;389.83;21.03;;;;;;;;;;3619916;32;20125;-90
2020/12/02 01:23:23;;;;;;;366.67;23.20;;;;;;;;;;3611183;32;20106;-90
2020/12/02 01:25:56;;;;;;;337.37;23.57;;;;;;;;;;3610868;32;20094;-90
2020/12/02 01:28:24;;;;;;;216.43;19.67;;;;;;;;;;3625832;32;20090;-91
2020/12/02 01:30:54;;;;;;;261.93;22.03;;;;;;;;;;3625378;32;20085;-90
2020/12/02 01:33:20;;;;;;;229.97;19.47;;;;;;;;;;3607217;39;20095;-89
2020/12/02 01:35:47;;;;;;;351.23;26.57;;;;;;;;;;3608792;32;20113;-89
2020/12/02 01:38:18;;;;;;;311.03;20.80;;;;;;;;;;3599313;32;20103;-90
2020/12/02 01:40:44;;;;;;;281.93;21.53;;;;;;;;;;3604747;39;20146;-90
2020/12/02 01:43:13;;;;;;;128.73;16.87;;;;;;;;;;3618052;39;20095;-89
2020/12/02 01:45:44;;;;;;;119.23;17.10;;;;;;;;;;3619112;32;20078;-90
2020/12/02 01:48:34;;;;;;;220.13;19.83;;;;;;;;;;3611544;39;20094;-90
2020/12/02 01:51:07;;;;;;;264.13;22.90;;;;;;;;;;3601134;32;20094;-90
2020/12/02 01:53:45;;;;;;;313.27;24.10;;;;;;;;;;3605147;32;20134;-91
2020/12/02 01:56:17;;;;;;;217.70;17.23;;;;;;;;;;3612362;32;21087;-90
2020/12/02 01:59:02;;;;;;;174.27;20.40;;;;;;;;;;3602309;39;20137;-90
2020/12/02 02:01:41;;;;;;;102.77;17.33;;;;;;;;;;3612503;32;20110;-89
2020/12/02 02:04:11;;;;;;;81.13;18.97;;;;;;;;;;3614627;32;20087;-89
2020/12/02 02:06:56;;;;;;;308.70;21.67;;;;;;;;;;3602261;39;20095;-89
2020/12/02 02:09:26;;;;;;;187.37;19.13;;;;;;;;;;3607988;39;20098;-88
2020/12/02 02:12:01;;;;;;;325.50;19.70;;;;;;;;;;3610524;32;20087;-90
2020/12/02 02:14:46;;;;;;;364.93;22.03;;;;;;;;;;3608948;39;20098;-88
2020/12/02 02:17:15;;;;;;;244.03;19.00;;;;;;;;;;3613989;32;20094;-89
2020/12/02 02:19:48;;;;;;;341.93;21.50;;;;;;;;;;3622114;32;20162;-89
2020/12/02 02:22:14;;;;;;;122.65;13.55;;;;;;;;;;3624946;32;20094;-90
2020/12/02 02:24:40;;;;;;;88.77;16.23;;;;;;;;;;3608990;39;20095;-89
2020/12/02 02:27:06;;;;;;;179.00;21.50;;;;;;;;;;3617777;39;20094;-90
2020/12/02 02:29:36;;;;;;;59.13;15.57;;;;;;;;;;3606550;39;20102;-90
2020/12/02 02:32:08;;;;;;;89.90;16.73;;;;;;;;;;3598719;39;21003;-90
2020/12/02 02:34:36;;;;;;;46.10;16.13;;;;;;;;;;3604799;32;20088;-89
2020/12/02 02:37:03;;;;;;;70.90;17.20;;;;;;;;;;3599283;39;20079;-90
2020/12/02 02:39:29;;;;;;;51.27;15.93;;;;;;;;;;3610701;39;20094;-90
2020/12/02 02:41:59;;;;;;;45.60;16.70;;;;;;;;;;3611166;39;20128;-90
2020/12/02 02:44:25;;;;;;;65.63;15.60;;;;;;;;;;3612607;32;20086;-90
2020/12/02 02:46:52;;;;;;;35.27;15.03;;;;;;;;;;3613311;32;20106;-90
2020/12/02 02:49:18;;;;;;;31.73;14.73;;;;;;;;;;3619363;39;20090;-90
2020/12/02 02:51:44;;;;;;;28.40;13.83;;;;;;;;;;3609776;39;20107;-89
2020/12/02 02:54:10;;;;;;;25.70;13.73;;;;;;;;;;3610443;32;20095;-87
2020/12/02 02:56:36;;;;;;;29.90;14.80;;;;;;;;;;3610103;32;20133;-89
2020/12/02 02:59:02;;;;;;;32.37;14.70;;;;;;;;;;3610291;32;20095;-89
2020/12/02 03:01:28;;;;;;;30.77;14.97;;;;;;;;;;3609701;32;20091;-89
2020/12/02 03:03:54;;;;;;;31.27;15.47;;;;;;;;;;3664328;32;20094;-90
2020/12/02 03:06:20;;;;;;;28.80;14.90;;;;;;;;;;3620607;39;20160;-90
2020/12/02 03:08:46;;;;;;;32.37;14.97;;;;;;;;;;3621258;32;20106;-90
2020/12/02 03:11:14;;;;;;;32.00;14.40;;;;;;;;;;3629497;39;20169;-90
2020/12/02 03:13:45;;;;;;;26.43;14.20;;;;;;;;;;3621043;39;20111;-89
2020/12/02 03:16:14;;;;;;;28.57;14.33;;;;;;;;;;3610367;39;20086;-88
2020/12/02 03:18:40;;;;;;;26.60;14.07;;;;;;;;;;3608413;39;20113;-90
2020/12/02 03:21:09;;;;;;;29.57;13.90;;;;;;;;;;3613203;32;20102;-89
2020/12/02 03:23:38;;;;;;;30.70;14.73;;;;;;;;;;3619035;39;20075;-91
2020/12/02 03:26:04;;;;;;;31.20;14.90;;;;;;;;;;3619373;32;20078;-91
2020/12/02 03:28:30;;;;;;;28.77;15.03;;;;;;;;;;3615351;32;20154;-88
2020/12/02 03:30:58;;;;;;;29.40;15.07;;;;;;;;;;3608273;39;20132;-90
2020/12/02 03:33:24;;;;;;;29.77;15.43;;;;;;;;;;3629411;32;20079;-89
2020/12/02 03:35:50;;;;;;;29.80;15.40;;;;;;;;;;3610288;39;20067;-89
2020/12/02 03:38:16;;;;;;;26.50;14.73;;;;;;;;;;3609710;39;20098;-90
2020/12/02 03:40:47;;;;;;;27.73;14.80;;;;;;;;;;3610308;39;20082;-91
2020/12/02 03:43:13;;;;;;;25.33;14.20;;;;;;;;;;3608056;32;20137;-89
2020/12/02 03:45:43;;;;;;;24.43;14.67;;;;;;;;;;3604566;32;20155;-90
2020/12/02 03:48:10;;;;;;;26.33;14.07;;;;;;;;;;3608118;39;20121;-89
2020/12/02 03:50:37;;;;;;;27.67;15.37;;;;;;;;;;3608740;39;20079;-90
2020/12/02 03:53:03;;;;;;;26.10;14.40;;;;;;;;;;3608050;39;20095;-89
2020/12/02 03:55:29;;;;;;;25.83;14.13;;;;;;;;;;3600455;39;20095;-90
2020/12/02 03:57:55;;;;;;;26.43;15.00;;;;;;;;;;3600651;39;20090;-90
2020/12/02 04:00:21;;;;;;;27.67;15.03;;;;;;;;;;3612407;39;20101;-88
2020/12/02 04:02:47;;;;;;;28.63;14.80;;;;;;;;;;3615080;32;20135;-89
2020/12/02 04:05:13;;;;;;;26.13;14.47;;;;;;;;;;3616101;32;20300;-91
2020/12/02 04:07:42;;;;;;;26.63;13.20;;;;;;;;;;3610844;39;20079;-89
2020/12/02 04:10:08;;;;;;;24.40;13.53;;;;;;;;;;3619288;32;20082;-91
2020/12/02 04:12:34;;;;;;;23.63;12.67;;;;;;;;;;3610778;39;20082;-90
2020/12/02 04:15:00;;;;;;;26.37;13.77;;;;;;;;;;3619335;39;20090;-89
2020/12/02 04:17:31;;;;;;;24.07;13.30;;;;;;;;;;3610539;39;20093;-88
2020/12/02 04:19:57;;;;;;;25.17;13.27;;;;;;;;;;3614605;32;20096;-87
2020/12/02 04:22:31;;;;;;;26.17;13.83;;;;;;;;;;3599768;39;20093;-90
2020/12/02 04:24:57;;;;;;;26.00;14.13;;;;;;;;;;3601181;32;20087;-91
2020/12/02 04:27:23;;;;;;;26.10;13.90;;;;;;;;;;3602827;39;20094;-90
2020/12/02 04:29:49;;;;;;;26.83;14.30;;;;;;;;;;3616456;32;20082;-90
2020/12/02 04:32:18;;;;;;;27.40;14.73;;;;;;;;;;3609883;39;20144;-90
2020/12/02 04:34:44;;;;;;;26.33;14.07;;;;;;;;;;3614693;32;20470;-90
2020/12/02 04:37:10;;;;;;;26.93;14.47;;;;;;;;;;3609483;39;20090;-90
2020/12/02 04:39:36;;;;;;;26.43;14.20;;;;;;;;;;3618502;39;20078;-90
2020/12/02 04:42:04;;;;;;;25.33;13.67;;;;;;;;;;3607306;39;20093;-90
2020/12/02 04:44:30;;;;;;;28.00;14.70;;;;;;;;;;3616073;39;20090;-91
2020/12/02 04:46:56;;;;;;;27.67;14.10;;;;;;;;;;3609606;39;20131;-90
2020/12/02 04:49:26;;;;;;;26.67;14.70;;;;;;;;;;3618032;39;20098;-90
2020/12/02 04:52:03;;;;;;;27.20;14.37;;;;;;;;;;3616876;32;20094;-88
2020/12/02 04:54:29;;;;;;;26.67;13.47;;;;;;;;;;3599553;39;20134;-90
2020/12/02 04:56:55;;;;;;;25.83;13.73;;;;;;;;;;3600659;32;20106;-89
2020/12/02 04:59:33;;;;;;;26.73;14.73;;;;;;;;;;3599522;32;20091;-90
2020/12/02 05:01:59;;;;;;;26.80;13.77;;;;;;;;;;3606203;39;20146;-89
2020/12/02 05:04:27;;;;;;;26.10;13.93;;;;;;;;;;3610744;32;20098;-90
2020/12/02 05:07:07;;;;;;;24.17;14.03;;;;;;;;;;3609599;39;20097;-90
2020/12/02 05:09:34;;;;;;;26.03;13.70;;;;;;;;;;3615957;32;20083;-91
2020/12/02 05:12:04;;;;;;;26.37;13.73;;;;;;;;;;3609595;39;20146;-90
2020/12/02 05:14:36;;;;;;;25.73;14.23;;;;;;;;;;3610645;32;20165;-90
2020/12/02 05:17:22;;;;;;;24.88;13.40;;;;;;;;;;3607228;39;20154;-88
2020/12/02 05:20:04;;;;;;;26.67;13.90;;;;;;;;;;3607144;39;20137;-90
2020/12/02 05:22:33;;;;;;;28.38;13.95;;;;;;;;;;3609106;39;20079;-89
2020/12/02 05:24:59;;;;;;;23.20;12.43;;;;;;;;;;3609357;39;20079;-90
2020/12/02 05:27:29;;;;;;;23.90;12.33;;;;;;;;;;3610491;39;20117;-90
2020/12/02 05:30:16;;;;;;;22.93;12.93;;;;;;;;;;3607065;32;20111;-90
2020/12/02 05:32:45;;;;;;;24.83;13.03;;;;;;;;;;3593912;32;20174;-90
2020/12/02 05:35:23;;;;;;;24.07;11.73;;;;;;;;;;3613958;32;20083;-90
2020/12/02 05:37:51;;;;;;;24.67;12.60;;;;;;;;;;3614136;32;20081;-91
2020/12/02 05:40:26;;;;;;;23.67;11.90;;;;;;;;;;3609093;39;20121;-90
2020/12/02 05:42:53;;;;;;;27.03;13.63;;;;;;;;;;3603147;39;20084;-91
2020/12/02 05:45:24;;;;;;;27.50;13.07;;;;;;;;;;3605836;32;20113;-91
2020/12/02 05:47:52;;;;;;;22.87;12.60;;;;;;;;;;3612028;34;20579;-87
2020/12/02 07:09:46;;;;;;;29.80;12.10;;;;;;;;;;3606158;39;20083;-88
2020/12/02 08:51:52;;;;;;;25.77;12.23;;;;;;;;;;3924810;26;20825;31
2020/12/02 09:19:53;;;;;;;21.15;10.10;;;;;;;;;;3936701;34;20155;31
2020/12/02 12:15:25;;;;;;;30.37;14.10;;;;;;;;;;3599046;39;20086;-91
2020/12/02 12:48:37;;;;;;;35.20;14.97;;;;;;;;;;3608842;39;20091;-91
2020/12/02 12:51:03;;;;;;;39.83;16.93;;;;;;;;;;3803695;32;20097;-92
2020/12/02 12:56:02;;;;;;;43.23;17.47;;;;;;;;;;3608351;39;20067;-91
2020/12/02 13:37:13;;;;;;;32.80;14.40;;;;;;;;;;3597994;40;20149;-92
2020/12/02 13:40:03;;;;;;;;;;;;;;;;;;;;;
2020/12/02 14:44:55;;;;;;;27.87;12.37;;;;;;;;;;2738313;26;20059;-90
2020/12/02 16:55:23;;;;;;;28.67;12.20;;;;;;;;;;2949468;34;20106;-90
2020/12/02 17:24:06;;;;;;;27.30;11.50;;;;;;;;;;3592874;40;20158;-92
2020/12/02 17:27:07;;;;;;;27.87;11.87;;;;;;;;;;3583810;40;20072;-92
2020/12/02 17:29:38;;;;;;;25.90;11.57;;;;;;;;;;3578692;40;20064;-94
2020/12/02 17:32:10;;;;;;;26.98;10.50;;;;;;;;;;3597171;40;20055;-93
2020/12/02 17:35:04;;;;;;;29.58;12.70;;;;;;;;;;3595804;32;20055;-92
2020/12/02 17:38:05;;;;;;;;;;;;;;;;;;;;;
2020/12/02 17:40:53;;;;;;;30.10;12.33;;;;;;;;;;3587829;40;20063;-93
2020/12/02 17:43:47;;;;;;;27.13;12.77;;;;;;;;;;3570351;40;20085;-94
2020/12/02 17:56:53;;;;;;;28.50;11.20;;;;;;;;;;4122958;26;20145;31
2020/12/02 18:07:11;;;;;;;31.33;12.40;;;;;;;;;;3598871;40;20126;-94
2020/12/02 20:05:13;;;;;;;27.58;12.90;;;;;;;;;;2794651;34;20101;31
2020/12/02 20:08:04;;;;;;;32.55;13.65;;;;;;;;;;4119329;32;20136;31
2020/12/02 20:10:42;;;;;;;30.10;12.73;;;;;;;;;;4094767;26;20281;31
2020/12/02 20:15:37;;;;;;;30.93;13.07;;;;;;;;;;3599878;40;20169;-91
